createdAt,value
2023-01-10T00:00:37.322Z,16.40
2023-01-10T00:03:06.234Z,16.70
2023-01-10T00:05:33.307Z,14.10
2023-01-10T00:08:02.195Z,12.90
2023-01-10T00:10:29.584Z,15.70
2023-01-10T00:13:15.263Z,17.90
2023-01-10T00:15:42.496Z,19.88
2023-01-10T00:18:09.699Z,17.63
2023-01-10T00:20:36.835Z,17.10
2023-01-10T00:23:03.876Z,18.67
2023-01-10T00:25:33.439Z,18.50
2023-01-10T00:28:17.395Z,16.73
2023-01-10T00:30:44.450Z,16.42
2023-01-10T00:33:17.471Z,18.55
2023-01-10T00:35:44.459Z,17.63
2023-01-10T00:38:11.335Z,16.60
2023-01-10T00:40:38.250Z,16.92
2023-01-10T00:43:23.925Z,19.50
2023-01-10T00:45:50.837Z,22.23
2023-01-10T00:48:17.889Z,21.98
2023-01-10T00:50:46.454Z,23.00
2023-01-10T00:53:13.380Z,23.80
2023-01-10T00:55:41.026Z,23.73
2023-01-10T00:58:11.758Z,23.70
2023-01-10T01:00:39.090Z,20.83
2023-01-10T01:03:07.091Z,21.35
2023-01-10T01:05:39.924Z,22.77
2023-01-10T01:08:06.963Z,22.65
2023-01-10T01:10:34.076Z,23.70
2023-01-10T01:13:10.809Z,21.98
2023-01-10T01:15:38.500Z,21.85
2023-01-10T01:18:06.262Z,22.63
2023-01-10T01:20:33.643Z,21.17
2023-01-10T01:23:01.191Z,21.92
2023-01-10T01:25:28.087Z,22.73
2023-01-10T01:27:54.963Z,24.35
2023-01-10T01:30:21.860Z,22.70
2023-01-10T01:32:48.906Z,22.42
2023-01-10T01:35:16.851Z,26.65
2023-01-10T01:37:44.739Z,26.27
2023-01-10T01:40:16.643Z,26.27
2023-01-10T01:42:44.692Z,24.58
2023-01-10T01:45:14.763Z,25.95
2023-01-10T01:47:58.335Z,25.70
2023-01-10T01:50:31.570Z,25.92
2023-01-10T01:53:02.547Z,26.85
2023-01-10T01:55:33.135Z,27.85
2023-01-10T01:58:07.282Z,27.73
2023-01-10T02:00:35.624Z,25.55
2023-01-10T02:03:04.230Z,22.70
2023-01-10T02:05:34.240Z,24.30
2023-01-10T02:08:02.499Z,24.00
2023-01-10T02:10:49.042Z,24.48
2023-01-10T02:13:20.031Z,23.92
2023-01-10T02:15:46.966Z,23.20
2023-01-10T02:18:14.358Z,24.08
2023-01-10T02:21:32.345Z,23.50
2023-01-10T02:24:46.883Z,20.55
2023-01-10T02:27:22.903Z,22.60
2023-01-10T02:30:07.812Z,22.70
2023-01-10T02:32:50.555Z,24.60
2023-01-10T02:36:14.860Z,23.77
2023-01-10T02:39:02.827Z,20.38
2023-01-10T02:41:39.990Z,25.20
2023-01-10T02:44:21.363Z,23.15
2023-01-10T02:46:49.882Z,20.75
2023-01-10T02:49:16.805Z,23.70
2023-01-10T02:51:43.720Z,25.20
2023-01-10T02:54:20.110Z,24.63
2023-01-10T02:56:53.157Z,22.73
2023-01-10T02:59:38.301Z,24.13
2023-01-10T03:02:22.056Z,24.67
2023-01-10T03:05:16.344Z,25.10
2023-01-10T03:08:01.185Z,26.58
2023-01-10T03:10:39.944Z,22.63
2023-01-10T03:13:22.184Z,25.90
2023-01-10T03:15:50.258Z,23.95
2023-01-10T03:18:33.997Z,24.55
2023-01-10T03:21:05.192Z,24.73
2023-01-10T03:23:35.237Z,23.90
2023-01-10T03:26:05.232Z,24.10
2023-01-10T03:28:38.084Z,23.65
2023-01-10T03:31:11.388Z,20.63
2023-01-10T03:33:39.071Z,22.83
2023-01-10T03:36:28.414Z,22.70
2023-01-10T03:38:57.940Z,20.77
2023-01-10T03:41:49.604Z,21.55
2023-01-10T03:44:40.172Z,24.20
2023-01-10T03:47:13.756Z,22.83
2023-01-10T03:49:44.640Z,25.10
2023-01-10T03:52:15.829Z,25.20
2023-01-10T03:54:44.766Z,27.08
2023-01-10T03:57:22.950Z,26.20
2023-01-10T03:59:58.088Z,24.80
2023-01-10T04:02:30.865Z,24.65
2023-01-10T04:04:59.183Z,24.88
2023-01-10T04:07:26.709Z,24.77
2023-01-10T04:09:53.775Z,25.17
2023-01-10T04:12:20.847Z,26.48
2023-01-10T04:14:48.138Z,25.35
2023-01-10T04:17:16.633Z,28.08
2023-01-10T04:19:44.202Z,29.25
2023-01-10T04:22:11.808Z,29.70
2023-01-10T04:24:39.172Z,28.98
2023-01-10T04:27:07.638Z,26.75
2023-01-10T04:29:34.624Z,25.73
2023-01-10T04:32:01.546Z,26.48
2023-01-10T04:34:28.441Z,26.00
2023-01-10T04:36:55.382Z,28.25
2023-01-10T04:39:22.284Z,26.42
2023-01-10T04:41:49.814Z,26.63
2023-01-10T04:44:16.764Z,27.30
2023-01-10T04:46:43.618Z,27.35
2023-01-10T04:49:11.113Z,28.02
2023-01-10T04:51:38.511Z,29.15
2023-01-10T04:54:05.545Z,28.30
2023-01-10T04:56:32.436Z,29.38
2023-01-10T04:58:59.329Z,26.88
2023-01-10T05:01:26.565Z,25.67
2023-01-10T05:03:55.898Z,26.38
2023-01-10T05:06:24.352Z,28.23
2023-01-10T05:08:51.630Z,28.33
2023-01-10T05:11:18.523Z,27.08
2023-01-10T05:13:47.842Z,27.92
2023-01-10T05:16:15.614Z,28.20
2023-01-10T05:18:42.630Z,29.05
2023-01-10T05:21:11.840Z,30.08
2023-01-10T05:23:39.360Z,30.08
2023-01-10T05:26:12.234Z,28.33
2023-01-10T05:28:39.515Z,29.55
2023-01-10T05:31:12.547Z,28.60
2023-01-10T05:33:39.951Z,28.70
2023-01-10T05:36:07.493Z,26.30
2023-01-10T05:38:34.504Z,23.77
2023-01-10T05:41:01.671Z,22.52
2023-01-10T05:43:29.159Z,20.35
2023-01-10T05:45:56.367Z,21.50
2023-01-10T05:48:23.774Z,18.55
2023-01-10T05:50:53.029Z,20.40
2023-01-10T05:53:20.421Z,19.15
2023-01-10T05:55:55.305Z,19.55
2023-01-10T05:58:22.591Z,17.92
2023-01-10T06:00:49.753Z,18.02
2023-01-10T06:03:16.735Z,20.90
2023-01-10T06:05:43.730Z,13.80
2023-01-10T06:08:10.911Z,18.00
2023-01-10T06:10:37.923Z,18.88
2023-01-10T06:13:09.930Z,19.70
2023-01-10T06:15:37.471Z,20.65
2023-01-10T06:18:04.906Z,19.40
2023-01-10T06:20:32.074Z,16.35
2023-01-10T06:23:01.126Z,15.52
2023-01-10T06:25:29.457Z,16.23
2023-01-10T06:27:56.648Z,17.00
2023-01-10T06:30:23.709Z,18.05
2023-01-10T06:32:50.628Z,17.40
2023-01-10T06:35:18.229Z,19.02
2023-01-10T06:37:45.789Z,21.38
2023-01-10T06:40:12.928Z,16.23
2023-01-10T06:42:41.353Z,15.15
2023-01-10T06:45:09.003Z,15.13
2023-01-10T06:47:36.042Z,16.88
2023-01-10T06:50:03.651Z,15.57
2023-01-10T06:52:30.695Z,16.67
2023-01-10T06:54:57.614Z,15.27
2023-01-10T06:57:24.448Z,16.55
2023-01-10T06:59:52.124Z,16.27
2023-01-10T07:02:20.504Z,17.45
2023-01-10T07:04:49.354Z,15.05
2023-01-10T07:07:16.422Z,15.68
2023-01-10T07:09:43.432Z,15.88
2023-01-10T07:12:10.355Z,17.75
2023-01-10T07:14:37.326Z,17.00
2023-01-10T07:17:04.277Z,17.63
2023-01-10T07:19:31.338Z,17.23
2023-01-10T07:21:58.376Z,17.63
2023-01-10T07:24:25.277Z,17.38
2023-01-10T07:26:55.212Z,16.65
2023-01-10T07:29:22.288Z,18.52
2023-01-10T07:31:49.204Z,15.63
2023-01-10T07:34:16.216Z,14.70
2023-01-10T07:36:43.069Z,17.63
2023-01-10T07:39:10.181Z,17.10
2023-01-10T07:41:37.062Z,16.98
2023-01-10T07:44:04.092Z,17.65
2023-01-10T07:46:31.151Z,17.40
2023-01-10T07:48:58.193Z,16.38
2023-01-10T07:51:25.126Z,15.30
2023-01-10T07:53:51.993Z,15.02
2023-01-10T07:56:18.865Z,15.15
2023-01-10T07:58:46.537Z,18.33
2023-01-10T08:01:13.484Z,12.55
2023-01-10T08:03:40.703Z,16.38
2023-01-10T08:06:13.183Z,14.32
2023-01-10T08:08:41.283Z,13.95
2023-01-10T08:11:08.346Z,14.98
2023-01-10T08:13:35.212Z,11.43
2023-01-10T08:16:06.443Z,11.02
2023-01-10T08:18:33.607Z,13.95
2023-01-10T08:21:01.129Z,12.73
2023-01-10T08:23:28.041Z,10.50
2023-01-10T08:25:55.375Z,9.25
2023-01-10T08:28:22.358Z,10.00
2023-01-10T08:30:50.576Z,11.68
2023-01-10T08:33:17.643Z,10.55
2023-01-10T08:35:44.588Z,12.27
2023-01-10T08:38:12.131Z,11.70
2023-01-10T08:40:39.193Z,12.10
2023-01-10T08:43:09.968Z,11.55
2023-01-10T08:45:38.197Z,12.02
2023-01-10T08:48:06.193Z,12.90
2023-01-10T08:50:33.405Z,14.10
2023-01-10T08:53:01.346Z,13.90
2023-01-10T08:55:31.105Z,12.77
2023-01-10T08:58:01.379Z,14.05
2023-01-10T09:00:29.096Z,13.48
2023-01-10T09:02:56.172Z,11.90
2023-01-10T09:05:27.348Z,11.65
2023-01-10T09:10:27.487Z,10.55
2023-01-10T09:12:57.412Z,10.45
2023-01-10T09:15:27.334Z,10.18
2023-01-10T09:17:56.442Z,12.68
2023-01-10T09:20:25.643Z,10.48
2023-01-10T09:22:52.898Z,9.57
2023-01-10T09:25:19.927Z,11.25
2023-01-10T09:27:46.961Z,12.63
2023-01-10T09:30:14.260Z,10.63
2023-01-10T09:32:41.208Z,10.68
2023-01-10T09:35:08.830Z,10.20
2023-01-10T09:37:35.912Z,10.70
2023-01-10T09:40:02.919Z,10.23
2023-01-10T09:43:04.771Z,10.73
2023-01-10T09:45:58.393Z,9.15
2023-01-10T09:48:46.468Z,9.77
2023-01-10T09:51:40.680Z,10.27
2023-01-10T09:54:32.487Z,9.23
2023-01-10T09:57:01.800Z,12.20
2023-01-10T09:59:38.040Z,9.52
2023-01-10T10:02:20.969Z,10.45
2023-01-10T10:05:18.304Z,9.65
2023-01-10T10:07:50.944Z,9.20
2023-01-10T10:10:27.137Z,8.85
2023-01-10T10:13:31.219Z,8.00
2023-01-10T10:16:17.363Z,9.88
2023-01-10T10:19:01.633Z,8.85
2023-01-10T10:21:49.174Z,8.45
2023-01-10T10:24:28.054Z,8.45
2023-01-10T10:27:08.677Z,8.93
2023-01-10T10:29:35.558Z,8.40
2023-01-10T10:32:22.181Z,9.85
2023-01-10T10:35:12.040Z,9.73
2023-01-10T10:37:48.853Z,11.43
2023-01-10T10:40:28.309Z,9.85
2023-01-10T10:42:57.354Z,9.25
2023-01-10T10:45:43.022Z,8.02
2023-01-10T10:50:59.623Z,9.07
2023-01-10T10:53:27.087Z,10.32
2023-01-10T10:55:54.456Z,7.68
2023-01-10T10:58:21.608Z,10.65
2023-01-10T11:00:48.729Z,6.55
2023-01-10T11:03:31.360Z,9.98
2023-01-10T11:06:00.673Z,8.27
2023-01-10T11:08:29.630Z,11.18
2023-01-10T11:10:59.760Z,8.95
2023-01-10T11:13:42.194Z,9.02
2023-01-10T11:16:24.318Z,10.07
2023-01-10T11:19:15.580Z,8.60
2023-01-10T11:22:06.130Z,11.27
2023-01-10T11:24:36.733Z,8.45
2023-01-10T11:27:31.869Z,9.75
2023-01-10T11:30:17.716Z,8.00
2023-01-10T11:32:57.780Z,7.10
2023-01-10T11:35:32.729Z,6.82
2023-01-10T11:38:18.910Z,10.43
2023-01-10T11:41:07.083Z,7.68
2023-01-10T11:43:39.676Z,9.10
2023-01-10T11:46:13.092Z,8.98
2023-01-10T11:49:11.042Z,6.97
2023-01-10T11:51:50.786Z,7.72
2023-01-10T11:54:24.931Z,7.78
2023-01-10T11:57:25.946Z,7.20
2023-01-10T11:59:56.137Z,9.80
2023-01-10T12:02:27.932Z,7.28
2023-01-10T12:04:57.104Z,8.60
2023-01-10T12:07:24.083Z,6.35
2023-01-10T12:10:03.626Z,6.32
2023-01-10T12:12:35.227Z,6.00
2023-01-10T12:15:30.023Z,9.77
2023-01-10T12:18:00.212Z,7.88
2023-01-10T12:20:30.310Z,8.40
2023-01-10T12:23:06.569Z,8.57
2023-01-10T12:25:36.723Z,6.63
2023-01-10T12:28:04.595Z,8.75
2023-01-10T12:30:36.124Z,6.45
2023-01-10T12:33:10.731Z,9.32
2023-01-10T12:35:40.552Z,11.25
2023-01-10T12:38:46.775Z,10.25
2023-01-10T12:41:39.459Z,12.13
2023-01-10T12:44:16.248Z,10.02
2023-01-10T12:47:08.715Z,10.38
2023-01-10T12:49:46.962Z,10.52
2023-01-10T12:52:58.092Z,10.77
2023-01-10T12:55:29.623Z,10.63
2023-01-10T12:58:00.357Z,10.48
2023-01-10T13:00:40.575Z,11.30
2023-01-10T13:03:20.193Z,11.32
2023-01-10T13:05:49.968Z,11.68
2023-01-10T13:08:21.295Z,7.93
2023-01-10T13:10:51.769Z,9.77
2023-01-10T13:13:40.639Z,13.93
2023-01-10T13:16:29.259Z,10.50
2023-01-10T13:19:11.121Z,10.13
2023-01-10T13:21:40.951Z,9.40
2023-01-10T13:24:24.171Z,10.38
2023-01-10T13:27:03.326Z,8.02
2023-01-10T13:29:42.836Z,10.00
2023-01-10T13:32:23.591Z,9.40
2023-01-10T13:34:51.653Z,8.68
2023-01-10T13:37:50.654Z,8.52
2023-01-10T13:40:28.403Z,9.35
2023-01-10T13:43:34.766Z,7.25
2023-01-10T13:46:16.795Z,7.43
2023-01-10T13:48:49.665Z,11.05
2023-01-10T13:51:19.748Z,10.55
2023-01-10T13:53:51.935Z,10.80
2023-01-10T13:56:34.835Z,8.38
2023-01-10T13:59:18.880Z,12.25
2023-01-10T14:02:10.837Z,11.10
2023-01-10T14:04:45.053Z,9.00
2023-01-10T14:07:45.207Z,11.05
2023-01-10T14:10:21.237Z,10.52
2023-01-10T14:12:59.419Z,6.72
2023-01-10T14:15:34.263Z,10.90
2023-01-10T14:18:08.251Z,10.77
2023-01-10T14:20:36.508Z,10.77
2023-01-10T14:23:19.530Z,11.63
2023-01-10T14:25:52.337Z,11.05
2023-01-10T14:28:26.675Z,10.88
2023-01-10T14:31:05.815Z,11.38
2023-01-10T14:33:34.339Z,9.77
2023-01-10T14:36:10.157Z,7.88
2023-01-10T14:38:39.032Z,7.65
2023-01-10T14:41:12.759Z,8.02
2023-01-10T14:44:13.841Z,7.07
2023-01-10T14:46:47.944Z,6.95
2023-01-10T14:49:20.697Z,8.75
2023-01-10T14:51:50.659Z,9.65
2023-01-10T14:54:20.625Z,8.40
2023-01-10T14:56:52.475Z,12.10
2023-01-10T14:59:38.058Z,13.63
2023-01-10T15:02:15.296Z,10.35
2023-01-10T15:04:57.213Z,9.35
2023-01-10T15:07:25.515Z,12.73
2023-01-10T15:09:56.571Z,9.05
2023-01-10T15:12:25.766Z,9.40
2023-01-10T15:15:13.741Z,13.55
2023-01-10T15:17:42.351Z,12.68
2023-01-10T15:20:18.081Z,15.80
2023-01-10T15:22:50.289Z,16.27
2023-01-10T15:25:19.985Z,12.73
2023-01-10T15:27:49.648Z,16.00
2023-01-10T15:30:22.107Z,15.18
2023-01-10T15:33:01.875Z,17.45
2023-01-10T15:35:36.178Z,17.50
2023-01-10T15:38:16.546Z,17.50
2023-01-10T15:40:44.454Z,17.00
2023-01-10T15:43:17.186Z,17.30
2023-01-10T15:45:45.885Z,17.70
2023-01-10T15:48:28.042Z,17.50
2023-01-10T15:50:59.752Z,16.63
2023-01-10T15:53:52.105Z,18.48
2023-01-10T15:56:28.992Z,17.55
2023-01-10T15:58:57.819Z,17.30
2023-01-10T16:01:27.615Z,14.68
2023-01-10T16:03:58.660Z,15.70
2023-01-10T16:06:33.887Z,17.45
2023-01-10T16:09:06.056Z,15.95
2023-01-10T16:12:06.593Z,13.60
2023-01-10T16:14:36.609Z,14.75
2023-01-10T16:17:05.060Z,15.23
2023-01-10T16:19:32.184Z,13.85
2023-01-10T16:22:01.394Z,14.45
2023-01-10T16:24:37.036Z,14.98
2023-01-10T16:27:06.419Z,14.40
2023-01-10T16:29:34.304Z,15.10
2023-01-10T16:32:01.410Z,15.30
2023-01-10T16:34:28.338Z,12.65
2023-01-10T16:36:55.261Z,11.45
2023-01-10T16:39:24.077Z,13.15
2023-01-10T16:42:09.769Z,15.63
2023-01-10T16:44:36.722Z,14.65
2023-01-10T16:47:06.745Z,15.27
2023-01-10T16:49:34.456Z,15.73
2023-01-10T16:52:01.317Z,15.77
2023-01-10T16:54:28.636Z,15.73
2023-01-10T16:56:56.119Z,16.63
2023-01-10T16:59:23.136Z,11.57
2023-01-10T17:01:56.902Z,14.98
2023-01-10T17:04:28.183Z,14.20
2023-01-10T17:06:56.731Z,14.73
2023-01-10T17:09:29.245Z,14.23
2023-01-10T17:12:04.345Z,13.00
2023-01-10T17:14:36.227Z,15.60
2023-01-10T17:17:04.531Z,15.15
2023-01-10T17:19:31.851Z,14.32
2023-01-10T17:22:00.452Z,13.40
2023-01-10T17:24:30.019Z,13.13
2023-01-10T17:26:57.196Z,11.23
2023-01-10T17:29:24.114Z,13.05
2023-01-10T17:31:51.122Z,13.05
2023-01-10T17:34:18.119Z,13.20
2023-01-10T17:36:45.025Z,12.30
2023-01-10T17:39:11.944Z,11.50
2023-01-10T17:41:38.804Z,11.20
2023-01-10T17:44:05.893Z,10.02
2023-01-10T17:46:32.951Z,11.07
2023-01-10T17:49:02.176Z,9.32
2023-01-10T17:51:29.168Z,7.63
2023-01-10T17:53:56.535Z,9.85
2023-01-10T17:56:24.657Z,8.70
2023-01-10T17:58:53.096Z,8.70
2023-01-10T18:01:25.174Z,8.88
2023-01-10T18:03:52.931Z,7.55
2023-01-10T18:06:25.154Z,9.20
2023-01-10T18:08:53.816Z,9.55
2023-01-10T18:11:25.252Z,8.00
2023-01-10T18:13:52.360Z,9.70
2023-01-10T18:16:19.333Z,10.77
2023-01-10T18:18:46.304Z,9.10
2023-01-10T18:21:15.820Z,10.13
2023-01-10T18:23:42.933Z,7.38
2023-01-10T18:26:12.190Z,8.68
2023-01-10T18:28:42.781Z,8.70
2023-01-10T18:31:16.367Z,6.63
2023-01-10T18:33:44.393Z,10.05
2023-01-10T18:36:21.429Z,9.45
2023-01-10T18:38:49.131Z,6.95
2023-01-10T18:41:16.879Z,5.30
2023-01-10T18:43:44.281Z,5.78
2023-01-10T18:46:14.469Z,8.35
2023-01-10T18:48:41.627Z,8.77
2023-01-10T18:51:10.138Z,8.32
2023-01-10T18:53:37.158Z,10.60
2023-01-10T18:56:05.345Z,9.82
2023-01-10T18:58:34.877Z,11.52
2023-01-10T19:01:14.220Z,13.75
2023-01-10T19:03:41.891Z,7.63
2023-01-10T19:06:11.343Z,8.68
2023-01-10T19:08:41.540Z,9.73
2023-01-10T19:11:14.774Z,10.10
2023-01-10T19:13:43.914Z,13.18
2023-01-10T19:16:18.438Z,13.98
2023-01-10T19:18:53.598Z,17.10
2023-01-10T19:21:21.164Z,12.38
2023-01-10T19:23:50.519Z,12.63
2023-01-10T19:26:18.170Z,11.05
2023-01-10T19:28:46.697Z,12.73
2023-01-10T19:31:21.745Z,11.60
2023-01-10T19:33:50.637Z,10.75
2023-01-10T19:36:22.990Z,9.43
2023-01-10T19:38:57.829Z,9.38
2023-01-10T19:41:26.506Z,9.65
2023-01-10T19:43:58.463Z,7.45
2023-01-10T19:46:26.482Z,8.25
2023-01-10T19:48:55.966Z,6.50
2023-01-10T19:51:22.975Z,6.53
2023-01-10T19:53:50.027Z,7.15
2023-01-10T19:56:21.940Z,9.00
2023-01-10T19:58:50.636Z,7.47
2023-01-10T20:01:20.815Z,7.65
2023-01-10T20:03:48.001Z,4.93
2023-01-10T20:06:18.543Z,4.43
2023-01-10T20:08:46.667Z,6.18
2023-01-10T20:11:15.033Z,5.47
2023-01-10T20:13:46.038Z,5.40
2023-01-10T20:16:15.697Z,7.30
2023-01-10T20:18:44.097Z,5.35
2023-01-10T20:21:12.847Z,3.20
2023-01-10T20:23:40.720Z,4.97
2023-01-10T20:26:11.890Z,4.38
2023-01-10T20:28:39.763Z,6.55
2023-01-10T20:31:17.598Z,6.93
2023-01-10T20:33:44.580Z,7.28
2023-01-10T20:36:14.363Z,8.80
2023-01-10T20:38:41.311Z,6.55
2023-01-10T20:41:15.585Z,7.47
2023-01-10T20:43:44.770Z,5.30
2023-01-10T20:46:14.395Z,6.63
2023-01-10T20:48:42.041Z,6.13
2023-01-10T20:51:12.923Z,8.05
2023-01-10T20:53:40.070Z,8.02
2023-01-10T20:56:12.897Z,6.93
2023-01-10T20:58:39.965Z,6.15
2023-01-10T21:01:07.990Z,4.90
2023-01-10T21:03:35.269Z,6.53
2023-01-10T21:06:02.766Z,6.80
2023-01-10T21:08:29.841Z,7.60
2023-01-10T21:10:57.618Z,5.55
2023-01-10T21:13:24.649Z,5.53
2023-01-10T21:15:55.291Z,6.13
2023-01-10T21:18:27.108Z,6.15
2023-01-10T21:20:55.748Z,6.82
2023-01-10T21:23:25.085Z,5.93
2023-01-10T21:25:53.827Z,6.43
2023-01-10T21:28:21.325Z,8.13
2023-01-10T21:30:48.367Z,6.30
2023-01-10T21:33:15.415Z,7.10
2023-01-10T21:35:42.406Z,6.47
2023-01-10T21:38:09.324Z,6.10
2023-01-10T21:40:36.384Z,7.13
2023-01-10T21:43:03.420Z,7.45
2023-01-10T21:45:30.483Z,6.40
2023-01-10T21:47:57.353Z,7.60
2023-01-10T21:50:24.229Z,9.13
2023-01-10T21:52:51.219Z,7.43
2023-01-10T21:55:18.258Z,7.45
2023-01-10T21:57:45.520Z,8.57
2023-01-10T22:00:13.016Z,6.50
2023-01-10T22:02:41.093Z,7.35
2023-01-10T22:05:10.237Z,8.27
2023-01-10T22:07:38.283Z,8.52
2023-01-10T22:10:07.167Z,8.00
2023-01-10T22:12:34.188Z,8.43
2023-01-10T22:15:01.126Z,7.90
2023-01-10T22:17:28.029Z,9.13
2023-01-10T22:19:54.987Z,8.68
2023-01-10T22:22:22.005Z,8.88
2023-01-10T22:24:48.852Z,8.68
2023-01-10T22:27:16.238Z,7.47
2023-01-10T22:29:43.713Z,7.00
2023-01-10T22:32:10.682Z,7.60
2023-01-10T22:34:37.710Z,9.02
2023-01-10T22:37:04.796Z,9.77
2023-01-10T22:39:31.943Z,6.85
2023-01-10T22:41:58.875Z,8.85
2023-01-10T22:44:27.234Z,10.05
2023-01-10T22:46:55.693Z,8.88
2023-01-10T22:49:23.149Z,9.60
2023-01-10T22:51:50.735Z,8.43
2023-01-10T22:54:18.128Z,8.98
2023-01-10T22:56:46.640Z,13.13
2023-01-10T22:59:14.388Z,7.80
2023-01-10T23:01:41.455Z,12.18
2023-01-10T23:04:08.741Z,8.18
2023-01-10T23:06:35.799Z,10.65
2023-01-10T23:09:02.806Z,11.05
2023-01-10T23:11:29.804Z,12.35
2023-01-10T23:13:56.705Z,10.50
2023-01-10T23:16:32.829Z,11.52
2023-01-10T23:19:00.350Z,12.70
2023-01-10T23:21:29.445Z,12.43
2023-01-10T23:23:57.012Z,10.75
2023-01-10T23:26:24.224Z,11.85
2023-01-10T23:28:51.872Z,10.60
2023-01-10T23:31:21.534Z,9.43
2023-01-10T23:33:49.261Z,9.02
2023-01-10T23:36:17.037Z,12.15
2023-01-10T23:38:44.418Z,11.00
2023-01-10T23:41:11.823Z,9.75
2023-01-10T23:43:38.781Z,11.07
2023-01-10T23:46:06.878Z,10.77
2023-01-10T23:48:34.294Z,10.05
2023-01-10T23:51:01.335Z,9.95
2023-01-10T23:53:28.276Z,10.32
2023-01-10T23:55:55.335Z,8.73
2023-01-10T23:58:22.308Z,8.05
